Salishan — WUT4384 — position and weather

sailwx.info

Track history (hours):
 
Tides and Currents Weather Stations Pressure Air Temp Water Temp Dewpoint Dewpoint Depression Visibility Wind Speed Wind Dir Waves Ship Positions

Salishan

Owner: Sause Bros. Inc., COOS BAY, OR. More information available from US FCC via Universal Licensing System and Coast Guard Vessel Documentation Center.

Last reported at 2015-Jun-02 10:20 UTC. Time now 2015-Jul-08 06:30 UTC.
Position N 45°44' W 124°53'.
Warning: this ship's position is 35 days out of date.

MMSI: 367007912.

Date/timePositionNaut miles runAvg speedWind from/ knotsBaromVisibWave heightAir tempDewpointWater temp
2015-Jun-02 10:20N 45°44' W 124°53'5 6.7
2015-Jun-02 09:33N 45°48' W 124°48'7 6.7
2015-Jun-02 08:33N 45°52' W 124°41'7 6.8
2015-Jun-02 07:33N 45°57' W 124°34'7 6.8
2015-Jun-02 06:33N 46°02' W 124°27'7 6.8
2015-Jun-02 05:33N 46°07' W 124°20'6 6.3
2015-Jun-02 04:33N 46°11' W 124°13'7 6.5
2015-Jun-02 03:33N 46°15' W 124°06'7 7.0
2015-Jun-02 02:33N 46°12' W 123°56'8 8.5
2015-Jun-02 01:34N 46°14' W 123°44'9 9.4
2015-Jun-02 00:33N 46°16' W 123°31'8 7.6
2015-Jun-01 23:33N 46°10' W 123°25'8 7.8
2015-Jun-01 22:33N 46°10' W 123°13'8 7.6
2015-Jun-01 21:33N 46°09' W 123°03'5 4.8
2015-Jun-01 20:33N 46°06' W 122°57'4 4.5
2015-Jun-01 19:33N 46°03' W 122°53'1312.8
2015-Jun-01 18:33N 45°50' W 122°47'1212.0
2015-Jun-01 17:33N 45°38' W 122°47'6 6.2
2015-Jun-01 16:33N 45°33' W 122°42'0 0.0
2015-Jun-01 15:15N 45°33' W 122°42'0 0.0
2015-Jun-01 14:33N 45°33' W 122°42'0 0.0
2015-Jun-01 13:24N 45°33' W 122°42'0 0.0
2015-Jun-01 12:33N 45°33' W 122°42'0 0.0
2015-Jun-01 11:30N 45°33' W 122°42'0 0.0
2015-Jun-01 10:33N 45°33' W 122°42'0 0.0
2015-Jun-01 09:33N 45°33' W 122°42'0 0.0
2015-Jun-01 08:30N 45°33' W 122°42'0 0.0
2015-Jun-01 07:30N 45°33' W 122°42'0 0.0
2015-Jun-01 06:30N 45°33' W 122°42'0 0.0
2015-Jun-01 05:30N 45°33' W 122°42'0 0.0
2015-Jun-01 02:24N 45°33' W 122°42'0 0.0
2015-Jun-01 01:18N 45°33' W 122°42'0 0.0
2015-Jun-01 00:27N 45°33' W 122°42'0 0.0
2015-May-31 23:30N 45°33' W 122°42'0 0.0
2015-May-31 22:21N 45°33' W 122°42'0 0.0
2015-May-31 21:33N 45°33' W 122°42'0 0.0
2015-May-31 20:30N 45°33' W 122°42'0 0.0
2015-May-31 19:33N 45°33' W 122°42'0 0.0
2015-May-31 18:30N 45°33' W 122°42'0 0.0
2015-May-31 17:30N 45°33' W 122°42'0 0.0
2015-May-31 16:33N 45°33' W 122°42'0 0.0
2015-May-31 15:33N 45°33' W 122°42'0 0.0
2015-May-31 14:23N 45°33' W 122°42'0 0.0
2015-May-31 13:32N 45°33' W 122°42'0 0.0
2015-May-31 12:29N 45°33' W 122°42'0 0.0
2015-May-31 11:29N 45°33' W 122°42'0 0.0
2015-May-31 10:20N 45°33' W 122°42'0 0.0
2015-May-31 09:29N 45°33' W 122°42'0 0.0
2015-May-31 08:32N 45°33' W 122°42'0 0.0
2015-May-31 07:23N 45°33' W 122°42'0 0.0
2015-May-31 06:26N 45°33' W 122°42'0 0.0
2015-May-31 05:32N 45°33' W 122°42'0 0.0
2015-May-31 04:29N 45°33' W 122°42'0 0.0
2015-May-31 03:33N 45°33' W 122°42'0 0.0
2015-May-31 02:33N 45°33' W 122°42'1 0.9
2015-May-31 01:33N 45°34' W 122°43'2 1.8
2015-May-31 00:33N 45°35' W 122°45'7 7.4
2015-May-30 23:33N 45°42' W 122°46'8 7.9
2015-May-30 22:33N 45°50' W 122°48'8 8.1
2015-May-30 21:33N 45°58' W 122°49'8 8.2
2015-May-30 20:33N 46°05' W 122°55'8 8.3
2015-May-30 19:33N 46°10' W 123°05'7 7.5
2015-May-30 18:33N 46°09' W 123°15'7 7.4
2015-May-30 17:33N 46°11' W 123°26'6 6.3
2015-May-30 16:33N 46°16' W 123°32'9 8.5
2015-May-30 15:33N 46°14' W 123°44'8 8.0
2015-May-30 14:33N 46°12' W 123°56'7 6.6
2015-May-30 13:33N 46°15' W 124°04'6 6.3
2015-May-30 12:33N 46°11' W 124°10'6 5.6
2015-May-30 11:33N 46°05' W 124°10'6 6.2
2015-May-30 10:33N 45°59' W 124°10'6 6.4
2015-May-30 09:33N 45°52' W 124°09'6 6.3
2015-May-30 08:33N 45°46' W 124°09'6 6.5
2015-May-30 07:33N 45°40' W 124°08'7 6.7
2015-May-30 06:33N 45°33' W 124°07'7 6.7
2015-May-30 05:33N 45°26' W 124°08'7 6.9
2015-May-30 04:33N 45°20' W 124°10'7 6.7
2015-May-30 03:33N 45°13' W 124°12'7 6.6
2015-May-30 02:33N 45°06' W 124°12'6 6.4
2015-May-30 01:33N 45°00' W 124°14'6 6.3
2015-May-30 00:33N 44°54' W 124°15'6 6.2
2015-May-29 23:33N 44°48' W 124°15'6 6.1
2015-May-29 22:33N 44°42' W 124°16'6 6.4
2015-May-29 21:33N 44°35' W 124°17'6 6.1
2015-May-29 20:33N 44°29' W 124°16'8 6.2
2015-May-29 19:18N 44°21' W 124°15'18 5.8
2015-May-29 16:11N 44°03' W 124°18'32 6.3
2015-May-29 11:05N 43°35' W 124°37'29 6.4
2015-May-29 06:29N 43°06' W 124°42'280 7.2
2015-May-27 15:30N 38°28' W 123°56'7 7.6
2015-May-27 14:33N 38°22' W 123°50'8 7.7
2015-May-27 13:33N 38°17' W 123°43'8 8.0
2015-May-27 12:33N 38°14' W 123°34'8 8.5
2015-May-27 11:33N 38°11' W 123°24'8 8.4
2015-May-27 10:33N 38°05' W 123°16'9 8.7
2015-May-27 09:33N 37°59' W 123°08'8 8.4
2015-May-27 08:33N 37°55' W 122°59'9 8.7
2015-May-27 07:33N 37°50' W 122°50'8 8.4
2015-May-27 06:33N 37°47' W 122°40'9 8.9
2015-May-27 05:33N 37°49' W 122°29'7 6.6
2015-May-27 04:33N 37°54' W 122°25'2 2.2
2015-May-27 03:33N 37°55' W 122°22'0 0.3
2015-May-27 02:33N 37°55' W 122°22'0 0.3
2015-May-27 01:33N 37°55' W 122°23'0 0.0
2015-May-27 00:31N 37°55' W 122°23'0 0.0
2015-May-26 23:28N 37°55' W 122°23'0 0.0
2015-May-26 22:28N 37°55' W 122°23'0 0.1
2015-May-26 21:34N 37°55' W 122°22'0 0.0
2015-May-26 20:30N 37°55' W 122°22'0 0.0
2015-May-26 19:33N 37°55' W 122°22'0 0.0
2015-May-26 18:33N 37°55' W 122°22'0 0.0
2015-May-26 17:33N 37°55' W 122°22'0 0.0
2015-May-26 16:33N 37°55' W 122°22'0 0.0
2015-May-26 15:33N 37°55' W 122°22'0 0.0
2015-May-26 14:30N 37°55' W 122°22'0 0.1
2015-May-26 13:33N 37°55' W 122°22'1 0.8
2015-May-26 12:33N 37°55' W 122°22'0 0.0
2015-May-26 11:33N 37°55' W 122°22'0 0.0
2015-May-26 10:33N 37°55' W 122°22'0 0.0
2015-May-26 09:33N 37°55' W 122°22'0 0.0
2015-May-26 08:33N 37°55' W 122°22'0 0.0
2015-May-26 07:33N 37°55' W 122°22'0 0.0
2015-May-26 06:30N 37°55' W 122°22'0 0.0
2015-May-26 05:33N 37°55' W 122°22'0 0.0
2015-May-26 04:33N 37°55' W 122°22'0 0.0
2015-May-26 03:33N 37°55' W 122°22'0 0.0
2015-May-26 02:30N 37°55' W 122°22'0 0.0
2015-May-26 01:27N 37°55' W 122°22'0 0.1
2015-May-26 00:33N 37°55' W 122°22'0 0.0
2015-May-25 23:33N 37°55' W 122°22'0 0.0
2015-May-25 22:33N 37°55' W 122°22'0 0.0
2015-May-25 21:33N 37°55' W 122°22'0 0.0
2015-May-25 20:30N 37°55' W 122°22'0 0.0
2015-May-25 19:33N 37°55' W 122°22'0 0.0
2015-May-25 18:33N 37°55' W 122°22'0 0.0
2015-May-25 17:33N 37°55' W 122°22'0 0.0
2015-May-25 16:33N 37°55' W 122°22'0 0.0
2015-May-25 15:30N 37°55' W 122°22'0 0.0
2015-May-25 14:30N 37°55' W 122°22'0 0.0
2015-May-25 13:33N 37°55' W 122°22'0 0.0
2015-May-25 12:33N 37°55' W 122°22'0 0.0
2015-May-25 11:33N 37°55' W 122°22'0 0.0
2015-May-25 10:33N 37°55' W 122°22'0 0.0
2015-May-25 09:30N 37°55' W 122°22'0 0.0
2015-May-25 08:30N 37°55' W 122°22'0 0.0
2015-May-25 07:33N 37°55' W 122°22'0 0.0
2015-May-25 06:33N 37°55' W 122°22'0 0.0
2015-May-25 05:32N 37°55' W 122°22'2 2.5
2015-May-25 04:33N 37°55' W 122°25'0 0.1
2015-May-25 03:29N 37°55' W 122°25'0 0.0
2015-May-25 02:20N 37°55' W 122°25'0 0.0
2015-May-25 01:26N 37°55' W 122°25'0 0.0
2015-May-25 00:26N 37°55' W 122°25'0 0.0
2015-May-24 23:29N 37°55' W 122°25'0 0.0
2015-May-24 22:32N 37°55' W 122°25'0 0.0
2015-May-24 21:26N 37°55' W 122°25'0 0.0
2015-May-24 20:32N 37°55' W 122°25'0 0.0
2015-May-24 19:17N 37°55' W 122°25'0 0.0
2015-May-24 18:32N 37°55' W 122°25'0 0.0
2015-May-24 17:32N 37°55' W 122°25'0 0.0
2015-May-24 16:32N 37°55' W 122°25'0 0.0
2015-May-24 15:23N 37°55' W 122°25'0 0.0
2015-May-24 14:29N 37°55' W 122°25'0 0.0
2015-May-24 13:29N 37°55' W 122°25'0 0.0
2015-May-24 12:32N 37°55' W 122°25'0 0.0
2015-May-24 11:29N 37°55' W 122°25'0 0.0
2015-May-24 10:32N 37°55' W 122°25'0 0.0
2015-May-24 09:32N 37°55' W 122°25'0 0.0
2015-May-24 08:29N 37°55' W 122°25'0 0.0
2015-May-24 07:32N 37°55' W 122°25'0 0.0
2015-May-24 06:23N 37°55' W 122°25'0 0.0
2015-May-24 05:29N 37°55' W 122°25'0 0.0
2015-May-24 04:23N 37°55' W 122°25'0 0.0
2015-May-24 03:26N 37°55' W 122°25'0 0.3
2015-May-24 02:34N 37°55' W 122°25'1 0.5
2015-May-24 01:32N 37°55' W 122°25'1 1.0
2015-May-24 00:33N 37°55' W 122°26'6 5.5
2015-May-23 23:33N 37°49' W 122°26'10 9.7
2015-May-23 22:33N 37°46' W 122°38'9 8.4
2015-May-23 21:31N 37°41' W 122°47'7 7.7
2015-May-23 20:33N 37°36' W 122°55'8 7.8
2015-May-23 19:33N 37°32' W 123°03'6 6.3
2015-May-23 18:33N 37°26' W 123°03'7 6.4
2015-May-23 17:32N 37°19' W 123°04'6 6.2
2015-May-23 16:33N 37°13' W 123°01'6 6.2
2015-May-23 15:31N 37°08' W 122°58'6 6.4
2015-May-23 14:30N 37°02' W 122°54'6 6.8
2015-May-23 13:33N 36°56' W 122°50'7 7.4
2015-May-23 12:33N 36°50' W 122°46'8 7.7
2015-May-23 11:29N 36°42' W 122°42'8 8.4
2015-May-23 10:33N 36°35' W 122°37'  
Track history (hours):
 
Tides and Currents Weather Stations Pressure Air Temp Water Temp Dewpoint Dewpoint Depression Visibility Wind Speed Wind Dir Waves Ship Positions

Salishan

Owner: Sause Bros. Inc., COOS BAY, OR. More information available from US FCC via Universal Licensing System and Coast Guard Vessel Documentation Center.

Last reported at 2015-Jun-02 10:20 UTC. Time now 2015-Jul-08 06:30 UTC.
Position N 45°44' W 124°53'.
Warning: this ship's position is 35 days out of date.

MMSI: 367007912.

Date/timePositionNaut miles runAvg speedWind from/ knotsBaromVisibWave heightAir tempDewpointWater temp
2015-Jun-02 10:20N 45°44' W 124°53'5 6.7
2015-Jun-02 09:33N 45°48' W 124°48'7 6.7
2015-Jun-02 08:33N 45°52' W 124°41'7 6.8
2015-Jun-02 07:33N 45°57' W 124°34'7 6.8
2015-Jun-02 06:33N 46°02' W 124°27'7 6.8
2015-Jun-02 05:33N 46°07' W 124°20'6 6.3
2015-Jun-02 04:33N 46°11' W 124°13'7 6.5
2015-Jun-02 03:33N 46°15' W 124°06'7 7.0
2015-Jun-02 02:33N 46°12' W 123°56'8 8.5
2015-Jun-02 01:34N 46°14' W 123°44'9 9.4
2015-Jun-02 00:33N 46°16' W 123°31'8 7.6
2015-Jun-01 23:33N 46°10' W 123°25'8 7.8
2015-Jun-01 22:33N 46°10' W 123°13'8 7.6
2015-Jun-01 21:33N 46°09' W 123°03'5 4.8
2015-Jun-01 20:33N 46°06' W 122°57'4 4.5
2015-Jun-01 19:33N 46°03' W 122°53'1312.8
2015-Jun-01 18:33N 45°50' W 122°47'1212.0
2015-Jun-01 17:33N 45°38' W 122°47'6 6.2
2015-Jun-01 16:33N 45°33' W 122°42'0 0.0
2015-Jun-01 15:15N 45°33' W 122°42'0 0.0
2015-Jun-01 14:33N 45°33' W 122°42'0 0.0
2015-Jun-01 13:24N 45°33' W 122°42'0 0.0
2015-Jun-01 12:33N 45°33' W 122°42'0 0.0
2015-Jun-01 11:30N 45°33' W 122°42'0 0.0
2015-Jun-01 10:33N 45°33' W 122°42'0 0.0
2015-Jun-01 09:33N 45°33' W 122°42'0 0.0
2015-Jun-01 08:30N 45°33' W 122°42'0 0.0
2015-Jun-01 07:30N 45°33' W 122°42'0 0.0
2015-Jun-01 06:30N 45°33' W 122°42'0 0.0
2015-Jun-01 05:30N 45°33' W 122°42'0 0.0
2015-Jun-01 02:24N 45°33' W 122°42'0 0.0
2015-Jun-01 01:18N 45°33' W 122°42'0 0.0
2015-Jun-01 00:27N 45°33' W 122°42'0 0.0
2015-May-31 23:30N 45°33' W 122°42'0 0.0
2015-May-31 22:21N 45°33' W 122°42'0 0.0
2015-May-31 21:33N 45°33' W 122°42'0 0.0
2015-May-31 20:30N 45°33' W 122°42'0 0.0
2015-May-31 19:33N 45°33' W 122°42'0 0.0
2015-May-31 18:30N 45°33' W 122°42'0 0.0
2015-May-31 17:30N 45°33' W 122°42'0 0.0
2015-May-31 16:33N 45°33' W 122°42'0 0.0
2015-May-31 15:33N 45°33' W 122°42'0 0.0
2015-May-31 14:23N 45°33' W 122°42'0 0.0
2015-May-31 13:32N 45°33' W 122°42'0 0.0
2015-May-31 12:29N 45°33' W 122°42'0 0.0
2015-May-31 11:29N 45°33' W 122°42'0 0.0
2015-May-31 10:20N 45°33' W 122°42'0 0.0
2015-May-31 09:29N 45°33' W 122°42'0 0.0
2015-May-31 08:32N 45°33' W 122°42'0 0.0
2015-May-31 07:23N 45°33' W 122°42'0 0.0
2015-May-31 06:26N 45°33' W 122°42'0 0.0
2015-May-31 05:32N 45°33' W 122°42'0 0.0
2015-May-31 04:29N 45°33' W 122°42'0 0.0
2015-May-31 03:33N 45°33' W 122°42'0 0.0
2015-May-31 02:33N 45°33' W 122°42'1 0.9
2015-May-31 01:33N 45°34' W 122°43'2 1.8
2015-May-31 00:33N 45°35' W 122°45'7 7.4
2015-May-30 23:33N 45°42' W 122°46'8 7.9
2015-May-30 22:33N 45°50' W 122°48'8 8.1
2015-May-30 21:33N 45°58' W 122°49'8 8.2
2015-May-30 20:33N 46°05' W 122°55'8 8.3
2015-May-30 19:33N 46°10' W 123°05'7 7.5
2015-May-30 18:33N 46°09' W 123°15'7 7.4
2015-May-30 17:33N 46°11' W 123°26'6 6.3
2015-May-30 16:33N 46°16' W 123°32'9 8.5
2015-May-30 15:33N 46°14' W 123°44'8 8.0
2015-May-30 14:33N 46°12' W 123°56'7 6.6
2015-May-30 13:33N 46°15' W 124°04'6 6.3
2015-May-30 12:33N 46°11' W 124°10'6 5.6
2015-May-30 11:33N 46°05' W 124°10'6 6.2
2015-May-30 10:33N 45°59' W 124°10'6 6.4
2015-May-30 09:33N 45°52' W 124°09'6 6.3
2015-May-30 08:33N 45°46' W 124°09'6 6.5
2015-May-30 07:33N 45°40' W 124°08'7 6.7
2015-May-30 06:33N 45°33' W 124°07'7 6.7
2015-May-30 05:33N 45°26' W 124°08'7 6.9
2015-May-30 04:33N 45°20' W 124°10'7 6.7
2015-May-30 03:33N 45°13' W 124°12'7 6.6
2015-May-30 02:33N 45°06' W 124°12'6 6.4
2015-May-30 01:33N 45°00' W 124°14'6 6.3
2015-May-30 00:33N 44°54' W 124°15'6 6.2
2015-May-29 23:33N 44°48' W 124°15'6 6.1
2015-May-29 22:33N 44°42' W 124°16'6 6.4
2015-May-29 21:33N 44°35' W 124°17'6 6.1
2015-May-29 20:33N 44°29' W 124°16'8 6.2
2015-May-29 19:18N 44°21' W 124°15'18 5.8
2015-May-29 16:11N 44°03' W 124°18'32 6.3
2015-May-29 11:05N 43°35' W 124°37'29 6.4
2015-May-29 06:29N 43°06' W 124°42'280 7.2
2015-May-27 15:30N 38°28' W 123°56'7 7.6
2015-May-27 14:33N 38°22' W 123°50'8 7.7
2015-May-27 13:33N 38°17' W 123°43'8 8.0
2015-May-27 12:33N 38°14' W 123°34'8 8.5
2015-May-27 11:33N 38°11' W 123°24'8 8.4
2015-May-27 10:33N 38°05' W 123°16'9 8.7
2015-May-27 09:33N 37°59' W 123°08'8 8.4
2015-May-27 08:33N 37°55' W 122°59'9 8.7
2015-May-27 07:33N 37°50' W 122°50'8 8.4
2015-May-27 06:33N 37°47' W 122°40'9 8.9
2015-May-27 05:33N 37°49' W 122°29'7 6.6
2015-May-27 04:33N 37°54' W 122°25'2 2.2
2015-May-27 03:33N 37°55' W 122°22'0 0.3
2015-May-27 02:33N 37°55' W 122°22'0 0.3
2015-May-27 01:33N 37°55' W 122°23'0 0.0
2015-May-27 00:31N 37°55' W 122°23'0 0.0
2015-May-26 23:28N 37°55' W 122°23'0 0.0
2015-May-26 22:28N 37°55' W 122°23'0 0.1
2015-May-26 21:34N 37°55' W 122°22'0 0.0
2015-May-26 20:30N 37°55' W 122°22'0 0.0
2015-May-26 19:33N 37°55' W 122°22'0 0.0
2015-May-26 18:33N 37°55' W 122°22'0 0.0
2015-May-26 17:33N 37°55' W 122°22'0 0.0
2015-May-26 16:33N 37°55' W 122°22'0 0.0
2015-May-26 15:33N 37°55' W 122°22'0 0.0
2015-May-26 14:30N 37°55' W 122°22'0 0.1
2015-May-26 13:33N 37°55' W 122°22'1 0.8
2015-May-26 12:33N 37°55' W 122°22'0 0.0
2015-May-26 11:33N 37°55' W 122°22'0 0.0
2015-May-26 10:33N 37°55' W 122°22'0 0.0
2015-May-26 09:33N 37°55' W 122°22'0 0.0
2015-May-26 08:33N 37°55' W 122°22'0 0.0
2015-May-26 07:33N 37°55' W 122°22'0 0.0
2015-May-26 06:30N 37°55' W 122°22'0 0.0
2015-May-26 05:33N 37°55' W 122°22'0 0.0
2015-May-26 04:33N 37°55' W 122°22'0 0.0
2015-May-26 03:33N 37°55' W 122°22'0 0.0
2015-May-26 02:30N 37°55' W 122°22'0 0.0
2015-May-26 01:27N 37°55' W 122°22'0 0.1
2015-May-26 00:33N 37°55' W 122°22'0 0.0
2015-May-25 23:33N 37°55' W 122°22'0 0.0
2015-May-25 22:33N 37°55' W 122°22'0 0.0
2015-May-25 21:33N 37°55' W 122°22'0 0.0
2015-May-25 20:30N 37°55' W 122°22'0 0.0
2015-May-25 19:33N 37°55' W 122°22'0 0.0
2015-May-25 18:33N 37°55' W 122°22'0 0.0
2015-May-25 17:33N 37°55' W 122°22'0 0.0
2015-May-25 16:33N 37°55' W 122°22'0 0.0
2015-May-25 15:30N 37°55' W 122°22'0 0.0
2015-May-25 14:30N 37°55' W 122°22'0 0.0
2015-May-25 13:33N 37°55' W 122°22'0 0.0
2015-May-25 12:33N 37°55' W 122°22'0 0.0
2015-May-25 11:33N 37°55' W 122°22'0 0.0
2015-May-25 10:33N 37°55' W 122°22'0 0.0
2015-May-25 09:30N 37°55' W 122°22'0 0.0
2015-May-25 08:30N 37°55' W 122°22'0 0.0
2015-May-25 07:33N 37°55' W 122°22'0 0.0
2015-May-25 06:33N 37°55' W 122°22'0 0.0
2015-May-25 05:32N 37°55' W 122°22'2 2.5
2015-May-25 04:33N 37°55' W 122°25'0 0.1
2015-May-25 03:29N 37°55' W 122°25'0 0.0
2015-May-25 02:20N 37°55' W 122°25'0 0.0
2015-May-25 01:26N 37°55' W 122°25'0 0.0
2015-May-25 00:26N 37°55' W 122°25'0 0.0
2015-May-24 23:29N 37°55' W 122°25'0 0.0
2015-May-24 22:32N 37°55' W 122°25'0 0.0
2015-May-24 21:26N 37°55' W 122°25'0 0.0
2015-May-24 20:32N 37°55' W 122°25'0 0.0
2015-May-24 19:17N 37°55' W 122°25'0 0.0
2015-May-24 18:32N 37°55' W 122°25'0 0.0
2015-May-24 17:32N 37°55' W 122°25'0 0.0
2015-May-24 16:32N 37°55' W 122°25'0 0.0
2015-May-24 15:23N 37°55' W 122°25'0 0.0
2015-May-24 14:29N 37°55' W 122°25'0 0.0
2015-May-24 13:29N 37°55' W 122°25'0 0.0
2015-May-24 12:32N 37°55' W 122°25'0 0.0
2015-May-24 11:29N 37°55' W 122°25'0 0.0
2015-May-24 10:32N 37°55' W 122°25'0 0.0
2015-May-24 09:32N 37°55' W 122°25'0 0.0
2015-May-24 08:29N 37°55' W 122°25'0 0.0
2015-May-24 07:32N 37°55' W 122°25'0 0.0
2015-May-24 06:23N 37°55' W 122°25'0 0.0
2015-May-24 05:29N 37°55' W 122°25'0 0.0
2015-May-24 04:23N 37°55' W 122°25'0 0.0
2015-May-24 03:26N 37°55' W 122°25'0 0.3
2015-May-24 02:34N 37°55' W 122°25'1 0.5
2015-May-24 01:32N 37°55' W 122°25'1 1.0
2015-May-24 00:33N 37°55' W 122°26'6 5.5
2015-May-23 23:33N 37°49' W 122°26'10 9.7
2015-May-23 22:33N 37°46' W 122°38'9 8.4
2015-May-23 21:31N 37°41' W 122°47'7 7.7
2015-May-23 20:33N 37°36' W 122°55'8 7.8
2015-May-23 19:33N 37°32' W 123°03'6 6.3
2015-May-23 18:33N 37°26' W 123°03'7 6.4
2015-May-23 17:32N 37°19' W 123°04'6 6.2
2015-May-23 16:33N 37°13' W 123°01'6 6.2
2015-May-23 15:31N 37°08' W 122°58'6 6.4
2015-May-23 14:30N 37°02' W 122°54'6 6.8
2015-May-23 13:33N 36°56' W 122°50'7 7.4
2015-May-23 12:33N 36°50' W 122°46'8 7.7
2015-May-23 11:29N 36°42' W 122°42'8 8.4
2015-May-23 10:33N 36°35' W 122°37'  

Dump ship's entire track history